createdAt,value
2019-03-10T00:01:02.538Z,5.10
2019-03-10T00:03:47.589Z,5.20
2019-03-10T00:06:33.924Z,5.20
2019-03-10T00:09:19.182Z,5.30
2019-03-10T00:12:04.534Z,5.10
2019-03-10T00:14:50.006Z,5.10
2019-03-10T00:17:35.067Z,5.00
2019-03-10T00:20:20.336Z,4.90
2019-03-10T00:23:07.074Z,4.90
2019-03-10T00:25:52.284Z,4.80
2019-03-10T00:28:37.670Z,4.70
2019-03-10T00:31:22.870Z,4.60
2019-03-10T00:34:08.158Z,4.70
2019-03-10T00:36:54.132Z,4.50
2019-03-10T00:39:59.095Z,4.50
2019-03-10T00:43:03.160Z,4.50
2019-03-10T00:46:14.761Z,4.50
2019-03-10T00:49:20.087Z,4.40
2019-03-10T00:52:08.979Z,4.40
2019-03-10T00:54:54.041Z,4.30
2019-03-10T00:57:39.126Z,4.30
2019-03-10T01:00:24.809Z,4.40
2019-03-10T01:03:11.180Z,4.30
2019-03-10T01:05:58.240Z,4.30
2019-03-10T01:08:43.633Z,4.30
2019-03-10T01:11:28.672Z,4.20
2019-03-10T01:14:14.640Z,4.20
2019-03-10T01:17:03.238Z,4.20
2019-03-10T01:19:49.017Z,4.20
2019-03-10T01:22:34.288Z,4.10
2019-03-10T01:25:19.190Z,4.10
2019-03-10T01:28:05.246Z,4.10
2019-03-10T01:31:03.437Z,4.00
2019-03-10T01:34:15.920Z,4.10
2019-03-10T01:37:00.765Z,4.20
2019-03-10T01:39:45.842Z,4.40
2019-03-10T01:42:30.856Z,4.20
2019-03-10T01:45:16.268Z,4.10
2019-03-10T01:48:02.732Z,4.10
2019-03-10T01:50:48.587Z,4.00
2019-03-10T01:53:33.810Z,4.00
2019-03-10T01:56:19.045Z,4.00
2019-03-10T01:59:04.783Z,4.10
2019-03-10T02:01:50.350Z,4.10
2019-03-10T02:04:35.315Z,4.10
2019-03-10T02:07:22.202Z,4.10
2019-03-10T02:10:09.616Z,4.00
2019-03-10T02:12:54.845Z,4.10
2019-03-10T02:15:39.882Z,4.10
2019-03-10T02:18:25.093Z,4.10
2019-03-10T02:21:10.418Z,4.10
2019-03-10T02:23:56.474Z,4.10
2019-03-10T02:26:41.661Z,4.10
2019-03-10T02:29:26.749Z,4.10
2019-03-10T02:32:12.150Z,4.40
2019-03-10T02:34:57.874Z,4.10
2019-03-10T02:37:43.268Z,4.10
2019-03-10T02:40:28.445Z,4.10
2019-03-10T02:43:13.991Z,4.10
2019-03-10T02:46:00.445Z,4.10
2019-03-10T02:48:47.195Z,4.10
2019-03-10T02:51:33.051Z,4.10
2019-03-10T02:54:18.111Z,4.20
2019-03-10T02:57:03.162Z,4.20
2019-03-10T02:59:48.031Z,4.10
2019-03-10T03:02:32.937Z,4.20
2019-03-10T03:05:18.270Z,4.20
2019-03-10T03:08:03.623Z,4.20
2019-03-10T03:10:48.477Z,4.20
2019-03-10T03:13:33.595Z,4.20
2019-03-10T03:16:18.778Z,4.20
2019-03-10T03:19:03.868Z,4.20
2019-03-10T03:21:51.256Z,4.20
2019-03-10T03:24:36.363Z,4.20
2019-03-10T03:27:21.624Z,4.20
2019-03-10T03:30:13.254Z,4.00
2019-03-10T03:32:58.892Z,4.00
2019-03-10T03:35:53.064Z,4.00
2019-03-10T03:38:41.950Z,3.90
2019-03-10T03:41:27.110Z,3.80
2019-03-10T03:44:12.355Z,3.80
2019-03-10T03:46:57.641Z,3.80
2019-03-10T03:49:42.867Z,3.80
2019-03-10T03:52:28.369Z,3.80
2019-03-10T03:55:14.202Z,3.70
2019-03-10T03:57:59.265Z,3.60
2019-03-10T04:00:46.249Z,3.70
2019-03-10T04:03:31.328Z,3.70
2019-03-10T04:06:16.670Z,3.80
2019-03-10T04:09:01.892Z,3.90
2019-03-10T04:11:47.385Z,4.00
2019-03-10T04:14:32.616Z,4.00
2019-03-10T04:17:17.523Z,4.10
2019-03-10T04:20:05.184Z,4.10
2019-03-10T04:22:50.098Z,4.20
2019-03-10T04:25:35.098Z,4.20
2019-03-10T04:28:20.336Z,4.20
2019-03-10T04:31:06.090Z,4.30
2019-03-10T04:33:51.389Z,4.30
2019-03-10T04:36:36.524Z,4.30
2019-03-10T04:39:21.484Z,4.30
2019-03-10T04:42:06.741Z,4.30
2019-03-10T04:44:51.494Z,4.30
2019-03-10T04:47:36.476Z,4.20
2019-03-10T04:50:21.729Z,4.20
2019-03-10T04:53:07.057Z,4.30
2019-03-10T04:55:54.369Z,4.20
2019-03-10T04:58:41.427Z,4.20
2019-03-10T05:01:26.580Z,4.10
2019-03-10T05:04:12.067Z,4.10
2019-03-10T05:06:58.044Z,4.10
2019-03-10T05:09:42.914Z,4.10
2019-03-10T05:12:28.180Z,4.10
2019-03-10T05:15:14.429Z,4.00
2019-03-10T05:17:59.197Z,4.00
2019-03-10T05:20:44.695Z,4.00
2019-03-10T05:23:33.466Z,4.00
2019-03-10T05:26:18.770Z,4.00
2019-03-10T05:29:04.023Z,3.90
2019-03-10T05:31:49.576Z,4.00
2019-03-10T05:34:36.004Z,3.90
2019-03-10T05:37:21.010Z,3.90
2019-03-10T05:40:07.411Z,4.00
2019-03-10T05:42:53.134Z,4.00
2019-03-10T05:45:37.968Z,4.00
2019-03-10T05:48:23.392Z,4.00
2019-03-10T05:51:08.589Z,4.00
2019-03-10T05:53:54.070Z,4.10
2019-03-10T05:56:39.491Z,4.10
2019-03-10T05:59:24.770Z,4.10
2019-03-10T06:02:30.086Z,4.10
2019-03-10T06:05:15.204Z,4.20
2019-03-10T06:08:00.417Z,4.10
2019-03-10T06:10:45.475Z,4.10
2019-03-10T06:13:31.563Z,4.20
2019-03-10T06:16:16.867Z,4.20
2019-03-10T06:19:01.801Z,4.20
2019-03-10T06:21:47.243Z,4.20
2019-03-10T06:24:32.548Z,4.30
2019-03-10T06:27:17.532Z,4.40
2019-03-10T06:30:09.755Z,4.50
2019-03-10T06:32:54.821Z,4.50
2019-03-10T06:35:39.541Z,4.60
2019-03-10T06:38:24.863Z,4.60
2019-03-10T06:41:10.261Z,4.70
2019-03-10T06:43:55.342Z,4.70
2019-03-10T06:46:42.892Z,4.70
2019-03-10T06:49:27.987Z,4.80
2019-03-10T06:52:13.384Z,4.80
2019-03-10T06:54:58.620Z,4.80
2019-03-10T06:57:43.750Z,4.90
2019-03-10T07:00:29.179Z,4.90
2019-03-10T07:03:14.478Z,4.90
2019-03-10T07:06:01.315Z,5.10
2019-03-10T07:08:47.479Z,5.20
2019-03-10T07:11:32.787Z,5.30
2019-03-10T07:14:19.081Z,5.20
2019-03-10T07:17:04.251Z,5.20
2019-03-10T07:19:49.377Z,5.20
2019-03-10T07:22:34.552Z,5.20
2019-03-10T07:25:19.766Z,5.20
2019-03-10T07:28:12.470Z,5.30
2019-03-10T07:31:11.458Z,5.30
2019-03-10T07:33:58.849Z,5.40
2019-03-10T07:37:02.454Z,5.40
2019-03-10T07:40:04.730Z,5.40
2019-03-10T07:42:51.842Z,5.50
2019-03-10T07:45:44.578Z,5.50
2019-03-10T07:48:44.655Z,5.50
2019-03-10T07:51:32.147Z,5.50
2019-03-10T07:54:21.729Z,5.50
2019-03-10T07:57:14.765Z,5.60
2019-03-10T08:00:02.467Z,5.50
2019-03-10T08:03:08.143Z,5.50
2019-03-10T08:06:08.142Z,5.60
2019-03-10T08:09:10.190Z,5.60
2019-03-10T08:12:06.300Z,5.60
2019-03-10T08:14:53.469Z,5.80
2019-03-10T08:17:49.422Z,5.80
2019-03-10T08:20:53.859Z,5.80
2019-03-10T08:23:49.855Z,6.00
2019-03-10T08:26:39.628Z,6.10
2019-03-10T08:29:26.659Z,6.20
2019-03-10T08:32:13.796Z,6.40
2019-03-10T08:35:03.507Z,6.60
2019-03-10T08:38:07.432Z,6.70
2019-03-10T08:41:10.793Z,6.50
2019-03-10T08:44:16.042Z,6.40
2019-03-10T08:47:06.957Z,6.30
2019-03-10T08:49:54.249Z,6.30
2019-03-10T08:52:44.701Z,6.30
2019-03-10T08:55:54.228Z,6.20
2019-03-10T08:58:56.258Z,6.30
2019-03-10T09:01:46.500Z,6.30
2019-03-10T09:04:36.027Z,6.40
2019-03-10T09:07:25.743Z,6.40
2019-03-10T09:10:18.722Z,6.40
2019-03-10T09:13:08.962Z,6.40
2019-03-10T09:19:19.934Z,6.30
2019-03-10T09:22:07.158Z,6.30
2019-03-10T09:24:55.419Z,6.40
2019-03-10T09:27:45.579Z,6.30
2019-03-10T09:30:40.088Z,6.40
2019-03-10T09:33:27.743Z,6.60
2019-03-10T09:36:17.013Z,6.60
2019-03-10T09:39:10.361Z,6.80
2019-03-10T09:42:12.807Z,6.80
2019-03-10T09:45:05.973Z,6.80
2019-03-10T09:47:52.737Z,6.70
2019-03-10T09:50:39.586Z,6.80
2019-03-10T09:53:29.586Z,6.90
2019-03-10T09:56:32.996Z,7.30
2019-03-10T09:59:38.328Z,7.40
2019-03-10T10:02:43.432Z,7.30
2019-03-10T10:05:32.798Z,7.30
2019-03-10T10:08:22.444Z,7.50
2019-03-10T10:11:09.543Z,7.50
2019-03-10T10:14:02.351Z,7.80
2019-03-10T10:16:52.798Z,8.00
2019-03-10T10:19:39.812Z,7.70
2019-03-10T10:22:29.094Z,7.50
2019-03-10T10:25:24.536Z,7.50
2019-03-10T10:28:21.545Z,7.60
2019-03-10T10:31:11.260Z,7.60
2019-03-10T10:37:05.335Z,7.60
2019-03-10T10:43:13.685Z,7.40
2019-03-10T10:46:01.016Z,7.60
2019-03-10T10:48:50.737Z,7.50
2019-03-10T10:51:37.937Z,7.50
2019-03-10T10:54:27.753Z,7.60
2019-03-10T10:57:15.206Z,7.70
2019-03-10T11:00:02.553Z,7.70
2019-03-10T11:02:49.384Z,7.60
2019-03-10T11:05:42.655Z,7.60
2019-03-10T11:08:33.470Z,7.60
2019-03-10T11:11:26.326Z,7.80
2019-03-10T11:14:30.090Z,7.60
2019-03-10T11:17:23.067Z,7.70
2019-03-10T11:20:11.586Z,7.60
2019-03-10T11:23:07.497Z,7.50
2019-03-10T11:25:57.275Z,7.60
2019-03-10T11:29:02.764Z,7.60
2019-03-10T11:31:48.552Z,7.60
2019-03-10T11:34:38.432Z,7.80
2019-03-10T11:37:40.487Z,7.80
2019-03-10T11:40:43.993Z,7.80
2019-03-10T11:43:45.959Z,7.80
2019-03-10T11:46:34.965Z,7.70
2019-03-10T11:49:22.375Z,7.70
2019-03-10T11:52:09.451Z,7.70
2019-03-10T11:55:08.686Z,7.60
2019-03-10T11:58:04.671Z,7.60
2019-03-10T12:03:49.154Z,7.60
2019-03-10T12:06:42.319Z,7.60
2019-03-10T12:09:27.830Z,7.50
2019-03-10T12:12:12.743Z,7.60
2019-03-10T12:14:58.259Z,7.60
2019-03-10T12:17:43.189Z,7.60
2019-03-10T12:20:28.067Z,7.50
2019-03-10T12:23:13.356Z,7.50
2019-03-10T12:25:58.657Z,7.50
2019-03-10T12:28:43.877Z,7.50
2019-03-10T12:31:29.163Z,7.50
2019-03-10T12:34:16.449Z,7.50
2019-03-10T12:37:01.168Z,7.50
2019-03-10T12:39:46.640Z,7.40
2019-03-10T12:42:31.738Z,7.40
2019-03-10T12:45:17.217Z,7.40
2019-03-10T12:48:03.364Z,7.50
2019-03-10T12:50:48.509Z,7.60
2019-03-10T12:53:35.741Z,7.80
2019-03-10T12:56:21.056Z,7.80
2019-03-10T12:59:05.978Z,7.90
2019-03-10T13:01:51.120Z,7.80
2019-03-10T13:04:36.540Z,7.80
2019-03-10T13:07:21.710Z,7.80
2019-03-10T13:10:08.277Z,7.80
2019-03-10T13:12:53.571Z,7.80
2019-03-10T13:15:39.776Z,7.80
2019-03-10T13:18:25.114Z,7.80
2019-03-10T13:21:10.171Z,7.90
2019-03-10T13:23:55.466Z,7.90
2019-03-10T13:26:41.667Z,8.00
2019-03-10T13:29:27.211Z,8.00
2019-03-10T13:32:12.590Z,8.10
2019-03-10T13:34:57.764Z,8.10
2019-03-10T13:37:42.972Z,8.10
2019-03-10T13:40:28.446Z,8.10
2019-03-10T13:43:13.819Z,8.10
2019-03-10T13:45:59.141Z,8.10
2019-03-10T13:48:44.173Z,8.20
2019-03-10T13:51:49.316Z,8.10
2019-03-10T13:54:35.538Z,8.00
2019-03-10T13:57:20.754Z,8.00
2019-03-10T14:00:09.428Z,8.00
2019-03-10T14:02:54.533Z,8.00
2019-03-10T14:05:40.128Z,8.00
2019-03-10T14:08:25.148Z,7.90
2019-03-10T14:11:11.403Z,8.00
2019-03-10T14:13:56.285Z,7.90
2019-03-10T14:16:41.281Z,7.90
2019-03-10T14:19:26.638Z,7.90
2019-03-10T14:22:11.834Z,7.80
2019-03-10T14:24:58.585Z,7.80
2019-03-10T14:27:44.706Z,7.80
2019-03-10T14:30:31.213Z,7.90
2019-03-10T14:33:16.517Z,7.80
2019-03-10T14:36:01.738Z,7.80
2019-03-10T14:38:47.035Z,7.80
2019-03-10T14:41:32.324Z,7.80
2019-03-10T14:44:17.724Z,7.80
2019-03-10T14:47:03.204Z,7.80
2019-03-10T14:49:48.584Z,7.70
2019-03-10T14:52:34.952Z,7.70
2019-03-10T14:55:22.982Z,7.60
2019-03-10T14:58:08.836Z,7.60
2019-03-10T15:00:54.217Z,7.60
2019-03-10T15:03:39.585Z,7.50
2019-03-10T15:06:25.369Z,7.50
2019-03-10T15:09:11.314Z,7.40
2019-03-10T15:11:56.487Z,7.40
2019-03-10T15:14:41.933Z,7.40
2019-03-10T15:17:27.313Z,7.40
2019-03-10T15:20:14.617Z,7.40
2019-03-10T15:22:59.574Z,7.40
2019-03-10T15:25:46.477Z,7.40
2019-03-10T15:28:32.147Z,7.40
2019-03-10T15:31:17.330Z,7.40
2019-03-10T15:34:03.176Z,7.40
2019-03-10T15:36:49.749Z,7.40
2019-03-10T15:39:34.859Z,7.40
2019-03-10T15:42:20.533Z,7.30
2019-03-10T15:45:10.950Z,7.30
2019-03-10T15:47:55.866Z,7.30
2019-03-10T15:50:41.100Z,7.30
2019-03-10T15:53:26.185Z,7.30
2019-03-10T15:56:11.221Z,7.30
2019-03-10T15:58:56.438Z,7.30
2019-03-10T16:01:43.133Z,7.30
2019-03-10T16:04:28.282Z,7.30
2019-03-10T16:07:13.657Z,7.30
2019-03-10T16:09:59.898Z,7.20
2019-03-10T16:12:44.950Z,7.20
2019-03-10T16:15:30.669Z,7.20
2019-03-10T16:18:15.827Z,7.20
2019-03-10T16:21:01.129Z,7.20
2019-03-10T16:23:46.467Z,7.10
2019-03-10T16:26:31.627Z,7.10
2019-03-10T16:29:17.747Z,7.10
2019-03-10T16:32:03.047Z,7.00
2019-03-10T16:34:49.218Z,6.90
2019-03-10T16:37:34.522Z,6.80
2019-03-10T16:40:20.830Z,6.80
2019-03-10T16:43:06.211Z,6.80
2019-03-10T16:45:52.007Z,6.90
2019-03-10T16:48:39.058Z,6.90
2019-03-10T16:51:24.533Z,6.90
2019-03-10T16:54:09.310Z,6.90
2019-03-10T16:56:54.732Z,6.90
2019-03-10T16:59:40.152Z,6.90
2019-03-10T17:02:25.387Z,6.80
2019-03-10T17:05:19.928Z,6.60
2019-03-10T17:08:06.600Z,6.40
2019-03-10T17:10:52.333Z,6.50
2019-03-10T17:13:37.307Z,6.50
2019-03-10T17:16:22.641Z,6.40
2019-03-10T17:19:09.516Z,6.20
2019-03-10T17:21:54.371Z,5.90
2019-03-10T17:24:39.817Z,5.80
2019-03-10T17:27:25.202Z,5.80
2019-03-10T17:30:20.873Z,5.90
2019-03-10T17:33:07.651Z,5.80
2019-03-10T17:35:54.111Z,5.90
2019-03-10T17:38:39.171Z,6.00
2019-03-10T17:41:24.142Z,6.00
2019-03-10T17:44:09.455Z,6.00
2019-03-10T17:46:54.546Z,6.20
2019-03-10T17:49:39.918Z,5.90
2019-03-10T17:52:24.951Z,5.70
2019-03-10T17:55:12.537Z,5.60
2019-03-10T17:57:58.830Z,5.50
2019-03-10T18:00:43.999Z,5.50
2019-03-10T18:03:31.647Z,5.40
2019-03-10T18:06:16.534Z,5.40
2019-03-10T18:09:02.035Z,5.40
2019-03-10T18:11:47.385Z,5.30
2019-03-10T18:14:32.523Z,5.40
2019-03-10T18:17:18.154Z,5.40
2019-03-10T18:20:07.249Z,5.40
2019-03-10T18:22:52.337Z,5.40
2019-03-10T18:25:37.601Z,5.30
2019-03-10T18:28:22.810Z,5.30
2019-03-10T18:31:08.353Z,5.30
2019-03-10T18:33:53.446Z,5.20
2019-03-10T18:36:39.116Z,5.20
2019-03-10T18:39:24.324Z,5.20
2019-03-10T18:42:09.889Z,5.20
2019-03-10T18:44:54.903Z,5.20
2019-03-10T18:47:40.116Z,5.20
2019-03-10T18:50:26.921Z,5.20
2019-03-10T18:53:13.427Z,5.20
2019-03-10T18:55:59.093Z,5.20
2019-03-10T18:58:45.437Z,5.20
2019-03-10T19:01:30.776Z,5.10
2019-03-10T19:04:16.031Z,5.10
2019-03-10T19:07:03.441Z,5.10
2019-03-10T19:09:48.902Z,5.10
2019-03-10T19:12:34.027Z,5.10
2019-03-10T19:15:39.483Z,5.00
2019-03-10T19:18:24.775Z,5.10
2019-03-10T19:21:10.276Z,5.00
2019-03-10T19:23:57.139Z,5.00
2019-03-10T19:27:02.575Z,5.00
2019-03-10T19:29:47.842Z,5.10
2019-03-10T19:32:33.130Z,5.00
2019-03-10T19:35:20.285Z,5.10
2019-03-10T19:38:05.690Z,5.00
2019-03-10T19:40:51.072Z,5.10
2019-03-10T19:43:37.281Z,5.10
2019-03-10T19:46:22.525Z,5.00
2019-03-10T19:49:07.624Z,5.00
2019-03-10T19:51:52.910Z,5.00
2019-03-10T19:54:38.023Z,4.90
2019-03-10T19:57:22.822Z,4.80
2019-03-10T20:00:16.358Z,4.70
2019-03-10T20:03:03.701Z,4.60
2019-03-10T20:05:48.773Z,4.60
2019-03-10T20:08:34.122Z,4.50
2019-03-10T20:11:20.360Z,4.50
2019-03-10T20:14:05.487Z,4.50
2019-03-10T20:16:50.418Z,4.50
2019-03-10T20:19:35.653Z,4.50
2019-03-10T20:22:21.919Z,4.50
2019-03-10T20:25:09.734Z,4.40
2019-03-10T20:27:54.739Z,4.40
2019-03-10T20:30:40.126Z,4.40
2019-03-10T20:33:26.484Z,4.40
2019-03-10T20:36:11.647Z,4.40
2019-03-10T20:38:56.927Z,4.40
2019-03-10T20:41:43.604Z,4.30
2019-03-10T20:44:28.639Z,4.30
2019-03-10T20:47:13.766Z,4.20
2019-03-10T20:49:58.949Z,4.20
2019-03-10T20:52:44.420Z,4.20
2019-03-10T20:55:29.753Z,4.10
2019-03-10T20:58:14.889Z,4.10
2019-03-10T21:01:00.731Z,4.20
2019-03-10T21:03:45.914Z,4.10
2019-03-10T21:06:31.418Z,4.10
2019-03-10T21:09:16.720Z,4.10
2019-03-10T21:12:02.108Z,4.10
2019-03-10T21:14:47.347Z,4.10
2019-03-10T21:17:32.674Z,4.10
2019-03-10T21:20:19.856Z,4.20
2019-03-10T21:23:05.843Z,4.20
2019-03-10T21:25:52.771Z,4.20
2019-03-10T21:28:38.071Z,4.10
2019-03-10T21:31:23.389Z,4.10
2019-03-10T21:34:08.774Z,4.20
2019-03-10T21:36:54.419Z,4.20
2019-03-10T21:39:41.639Z,4.20
2019-03-10T21:42:26.909Z,4.30
2019-03-10T21:45:13.447Z,4.40
2019-03-10T21:47:59.661Z,4.30
2019-03-10T21:50:45.892Z,4.20
2019-03-10T21:53:32.212Z,4.20
2019-03-10T21:56:17.576Z,4.10
2019-03-10T21:59:02.568Z,4.10
2019-03-10T22:01:47.767Z,4.00
2019-03-10T22:04:33.334Z,3.90
2019-03-10T22:07:18.254Z,3.90
2019-03-10T22:10:06.623Z,3.90
2019-03-10T22:12:52.570Z,3.80
2019-03-10T22:15:41.893Z,3.70
2019-03-10T22:18:25.156Z,3.60
2019-03-10T22:21:11.979Z,3.60
2019-03-10T22:23:59.601Z,3.60
2019-03-10T22:26:44.137Z,3.80
2019-03-10T22:29:29.531Z,3.70
2019-03-10T22:32:15.090Z,3.70
2019-03-10T22:35:00.402Z,3.70
2019-03-10T22:37:45.915Z,3.70
2019-03-10T22:40:31.017Z,3.60
2019-03-10T22:43:16.435Z,3.70
2019-03-10T22:46:01.541Z,3.70
2019-03-10T22:48:46.499Z,3.70
2019-03-10T22:51:31.305Z,3.70
2019-03-10T22:54:16.568Z,3.60
2019-03-10T22:57:34.510Z,3.60
2019-03-10T23:00:24.599Z,3.60
2019-03-10T23:03:10.045Z,3.50
2019-03-10T23:05:55.558Z,3.70
2019-03-10T23:08:40.367Z,3.40
2019-03-10T23:11:25.317Z,3.50
2019-03-10T23:14:10.350Z,3.50
2019-03-10T23:16:56.058Z,3.50
2019-03-10T23:19:41.325Z,3.60
2019-03-10T23:22:26.980Z,3.50
2019-03-10T23:25:13.013Z,3.50
2019-03-10T23:27:58.266Z,3.60
2019-03-10T23:30:43.291Z,3.50
2019-03-10T23:33:28.231Z,3.50
2019-03-10T23:36:13.364Z,3.50
2019-03-10T23:38:58.514Z,3.60
2019-03-10T23:41:43.770Z,3.60
2019-03-10T23:44:29.222Z,3.60
2019-03-10T23:47:14.576Z,3.60
2019-03-10T23:49:59.762Z,3.60
2019-03-10T23:52:45.066Z,3.60
2019-03-10T23:55:32.486Z,3.60
2019-03-10T23:58:17.577Z,3.60
